Prince Of Seas — A8JI5 — position and weather

sailwx.info

Track history (hours):
 
Tides and Currents Weather Stations Pressure Air Temp Water Temp Dewpoint Dewpoint Depression Visibility Wind Speed Wind Dir Waves Ship Positions

Prince Of Seas

Last reported at 2017-Mar-24 06:19 UTC. Time now 2017-Mar-26 03:28 UTC.
Position N 35°58' W 005°41'.

Length 131 m; beam 19 m.

Type: Ship. MMSI: 636091098.

Date/timePositionNaut miles runAvg speedWind from/ knotsBaromVisibWave heightAir tempDewpointWater temp
2017-Mar-24 06:19N 35°58' W 005°41'1113.7
2017-Mar-24 05:33N 35°60' W 005°29'7 6.7
2017-Mar-24 04:32N 36°06' W 005°25'2 0.4
2017-Mar-24 00:33N 36°07' W 005°24'2 1.4
2017-Mar-23 23:25N 36°09' W 005°22'0 0.0
2017-Mar-23 22:28N 36°09' W 005°22'0 0.0
2017-Mar-23 21:25N 36°09' W 005°22'0 0.0
2017-Mar-23 20:31N 36°09' W 005°22'0 0.1
2017-Mar-23 19:28N 36°09' W 005°22'0 0.1
2017-Mar-23 16:31N 36°08' W 005°22'0 0.0
2017-Mar-23 15:31N 36°08' W 005°22'0 0.0
2017-Mar-23 14:31N 36°08' W 005°22'0 0.0
2017-Mar-23 13:31N 36°08' W 005°22'4 3.7
2017-Mar-23 12:34N 36°06' W 005°20'1110.6
2017-Mar-23 11:33N 36°05' W 005°06'  
2017-Mar-20 22:22N 37°15' E 011°44'1316.3
2017-Mar-20 21:34N 37°11' E 011°60'1716.7
2017-Mar-20 20:33N 37°05' E 012°20'1615.9
2017-Mar-20 19:33N 36°60' E 012°39'1615.9
2017-Mar-20 18:33N 36°54' E 012°57'1615.8
2017-Mar-20 17:33N 36°49' E 013°16'1515.2
2017-Mar-20 16:33N 36°44' E 013°34'1515.2
2017-Mar-20 15:34N 36°39' E 013°52'1615.7
2017-Mar-20 14:33N 36°33' E 014°10'1616.0
2017-Mar-20 13:33N 36°28' E 014°29'1615.7
2017-Mar-20 12:33N 36°24' E 014°47'1615.6
2017-Mar-20 11:33N 36°20' E 015°06'1615.1
2017-Mar-20 10:30N 36°17' E 015°26'  
Track history (hours):
 
Tides and Currents Weather Stations Pressure Air Temp Water Temp Dewpoint Dewpoint Depression Visibility Wind Speed Wind Dir Waves Ship Positions

Prince Of Seas

Last reported at 2017-Mar-24 06:19 UTC. Time now 2017-Mar-26 03:28 UTC.
Position N 35°58' W 005°41'.

Length 131 m; beam 19 m.

Type: Ship. MMSI: 636091098.

Date/timePositionNaut miles runAvg speedWind from/ knotsBaromVisibWave heightAir tempDewpointWater temp
2017-Mar-24 06:19N 35°58' W 005°41'1113.7
2017-Mar-24 05:33N 35°60' W 005°29'7 6.7
2017-Mar-24 04:32N 36°06' W 005°25'2 0.4
2017-Mar-24 00:33N 36°07' W 005°24'2 1.4
2017-Mar-23 23:25N 36°09' W 005°22'0 0.0
2017-Mar-23 22:28N 36°09' W 005°22'0 0.0
2017-Mar-23 21:25N 36°09' W 005°22'0 0.0
2017-Mar-23 20:31N 36°09' W 005°22'0 0.1
2017-Mar-23 19:28N 36°09' W 005°22'0 0.1
2017-Mar-23 16:31N 36°08' W 005°22'0 0.0
2017-Mar-23 15:31N 36°08' W 005°22'0 0.0
2017-Mar-23 14:31N 36°08' W 005°22'0 0.0
2017-Mar-23 13:31N 36°08' W 005°22'4 3.7
2017-Mar-23 12:34N 36°06' W 005°20'1110.6
2017-Mar-23 11:33N 36°05' W 005°06'  
2017-Mar-20 22:22N 37°15' E 011°44'1316.3
2017-Mar-20 21:34N 37°11' E 011°60'1716.7
2017-Mar-20 20:33N 37°05' E 012°20'1615.9
2017-Mar-20 19:33N 36°60' E 012°39'1615.9
2017-Mar-20 18:33N 36°54' E 012°57'1615.8
2017-Mar-20 17:33N 36°49' E 013°16'1515.2
2017-Mar-20 16:33N 36°44' E 013°34'1515.2
2017-Mar-20 15:34N 36°39' E 013°52'1615.7
2017-Mar-20 14:33N 36°33' E 014°10'1616.0
2017-Mar-20 13:33N 36°28' E 014°29'1615.7
2017-Mar-20 12:33N 36°24' E 014°47'1615.6
2017-Mar-20 11:33N 36°20' E 015°06'1615.1
2017-Mar-20 10:30N 36°17' E 015°26'  

Dump ship's entire track history